This is the latest recevied weather packets stored in our database for station/object KC5DP. If no packets are shown the sender has not sent any weather packets the latest 10 day(s).
| Time | Temp. | Humidity | Pressure | Rain* | Wind** | Luminosity | Snow |
|---|---|---|---|---|---|---|---|
| 1777515200 | 20° C | 93% | 1012.8 hPa | 1.78 mm | - | 0 W/m² | - |
| 1777514896 | 20.56° C | 93% | 1012.5 hPa | 1.27 mm | - | 0 W/m² | - |
| 1777514592 | 20.56° C | 92% | 1012.5 hPa | 1.27 mm | - | 0 W/m² | - |
| 1777514290 | 20.56° C | 91% | 1012.3 hPa | 0 mm | - | 0 W/m² | - |
| 1777513986 | 20.56° C | 90% | 1012 hPa | 0 mm | - | 0 W/m² | - |
| 1777513381 | 20.56° C | 89% | 1012.4 hPa | 0 mm | - | 0 W/m² | - |
| 1777513076 | 20.56° C | 89% | 1012.2 hPa | 0 mm | - | 0 W/m² | - |
| 1777512166 | 20.56° C | 89% | 1011.8 hPa | 0 mm | - | 0 W/m² | - |
| 1777511864 | 20.56° C | 89% | 1011.8 hPa | 0 mm | - | 0 W/m² | - |
| 1777510043 | 20.56° C | 92% | 1011.2 hPa | 0 mm | - | 0 W/m² | - |
| 1777508830 | 20.56° C | 90% | 1011.1 hPa | 0 mm | - | 4 W/m² | - |
| 1777508527 | 21.11° C | 89% | 1010.8 hPa | 0 mm | - | 6 W/m² | - |
| 1777508224 | 21.11° C | 89% | 1011.1 hPa | 0 mm | - | 6 W/m² | - |
| 1777507921 | 21.11° C | 88% | 1011.4 hPa | 0 mm | - | 4 W/m² | - |
| 1777507618 | 21.11° C | 88% | 1011.6 hPa | 0 mm | - | 3 W/m² | - |
| 1777506102 | 26.67° C | 78% | 1010.9 hPa | 0 mm | - | 5 W/m² | - |
| 1777504888 | 27.22° C | 72% | 1009.5 hPa | 0 mm | - | 20 W/m² | - |
| 1777500850 | 28.89° C | 65% | 1009 hPa | 0 mm | - | 84 W/m² | - |
| 1777500546 | 28.89° C | 65% | 1009 hPa | 0 mm | - | 84 W/m² | - |
| 1777500242 | 29.44° C | 63% | 1009.2 hPa | 0 mm | - | 92 W/m² | - |
| 1777499939 | 29.44° C | 64% | 1009 hPa | 0 mm | - | 102 W/m² | - |
| 1777499635 | 29.44° C | 65% | 1008.9 hPa | 0 mm | - | 132 W/m² | - |
| 1777498726 | 29.44° C | 64% | 1008.9 hPa | 0 mm | - | 164 W/m² | - |
| 1777498423 | 29.44° C | 64% | 1008.9 hPa | 0 mm | - | 164 W/m² | - |
| 1777498120 | 29.44° C | 63% | 1008.9 hPa | 0 mm | - | 162 W/m² | - |
* Rain latest hour (hover to see other rain measurements)
** Current wind speed in m/s (hover to see current wind gust speed)